sensor_id;sensor_type;location;lat;lon;timestamp;P1;durP1;ratioP1;P2;durP2;ratioP2
69185;SDS011;56298;49.246;9.410;2023-04-16T00:02:07;7.90;;;4.43;;
69185;SDS011;56298;49.246;9.410;2023-04-16T00:04:33;7.50;;;4.60;;
69185;SDS011;56298;49.246;9.410;2023-04-16T00:06:58;7.87;;;4.30;;
69185;SDS011;56298;49.246;9.410;2023-04-16T00:09:23;7.87;;;4.70;;
69185;SDS011;56298;49.246;9.410;2023-04-16T00:11:48;8.70;;;4.50;;
69185;SDS011;56298;49.246;9.410;2023-04-16T00:14:14;7.20;;;4.47;;
69185;SDS011;56298;49.246;9.410;2023-04-16T00:16:39;7.57;;;4.43;;
69185;SDS011;56298;49.246;9.410;2023-04-16T00:19:04;7.87;;;4.80;;
69185;SDS011;56298;49.246;9.410;2023-04-16T00:21:30;7.93;;;4.85;;
69185;SDS011;56298;49.246;9.410;2023-04-16T00:23:55;8.47;;;4.97;;
69185;SDS011;56298;49.246;9.410;2023-04-16T00:26:20;8.18;;;5.00;;
69185;SDS011;56298;49.246;9.410;2023-04-16T00:28:46;8.67;;;4.90;;
69185;SDS011;56298;49.246;9.410;2023-04-16T00:31:11;7.50;;;4.63;;
69185;SDS011;56298;49.246;9.410;2023-04-16T00:33:36;8.77;;;5.00;;
69185;SDS011;56298;49.246;9.410;2023-04-16T00:36:02;9.20;;;4.90;;
69185;SDS011;56298;49.246;9.410;2023-04-16T00:38:27;8.43;;;5.00;;
69185;SDS011;56298;49.246;9.410;2023-04-16T00:40:54;9.55;;;5.30;;
69185;SDS011;56298;49.246;9.410;2023-04-16T00:43:22;8.30;;;5.20;;
69185;SDS011;56298;49.246;9.410;2023-04-16T00:45:49;10.43;;;5.80;;
69185;SDS011;56298;49.246;9.410;2023-04-16T00:48:15;9.57;;;5.87;;
69185;SDS011;56298;49.246;9.410;2023-04-16T00:50:40;10.23;;;5.80;;
69185;SDS011;56298;49.246;9.410;2023-04-16T00:53:06;11.33;;;6.43;;
69185;SDS011;56298;49.246;9.410;2023-04-16T00:55:31;10.77;;;6.10;;
69185;SDS011;56298;49.246;9.410;2023-04-16T00:57:57;11.30;;;6.20;;
69185;SDS011;56298;49.246;9.410;2023-04-16T01:00:22;11.50;;;6.63;;
69185;SDS011;56298;49.246;9.410;2023-04-16T01:02:47;11.00;;;6.87;;
69185;SDS011;56298;49.246;9.410;2023-04-16T01:05:12;11.20;;;7.07;;
69185;SDS011;56298;49.246;9.410;2023-04-16T01:07:38;12.27;;;7.13;;
69185;SDS011;56298;49.246;9.410;2023-04-16T01:10:03;12.00;;;7.40;;
69185;SDS011;56298;49.246;9.410;2023-04-16T01:12:29;13.43;;;7.27;;
69185;SDS011;56298;49.246;9.410;2023-04-16T01:14:54;12.80;;;7.27;;
69185;SDS011;56298;49.246;9.410;2023-04-16T01:17:20;13.05;;;7.28;;
69185;SDS011;56298;49.246;9.410;2023-04-16T01:19:45;13.53;;;7.70;;
69185;SDS011;56298;49.246;9.410;2023-04-16T01:22:10;12.43;;;7.60;;
69185;SDS011;56298;49.246;9.410;2023-04-16T01:24:36;13.60;;;8.10;;
69185;SDS011;56298;49.246;9.410;2023-04-16T01:27:02;12.65;;;7.63;;
69185;SDS011;56298;49.246;9.410;2023-04-16T01:29:27;13.17;;;7.90;;
69185;SDS011;56298;49.246;9.410;2023-04-16T01:31:52;13.53;;;7.80;;
69185;SDS011;56298;49.246;9.410;2023-04-16T01:34:18;13.32;;;7.95;;
69185;SDS011;56298;49.246;9.410;2023-04-16T01:36:43;14.60;;;7.93;;
69185;SDS011;56298;49.246;9.410;2023-04-16T01:39:09;13.87;;;8.00;;
69185;SDS011;56298;49.246;9.410;2023-04-16T01:41:37;14.20;;;8.00;;
69185;SDS011;56298;49.246;9.410;2023-04-16T01:44:03;13.50;;;7.40;;
69185;SDS011;56298;49.246;9.410;2023-04-16T01:46:30;12.20;;;7.50;;
69185;SDS011;56298;49.246;9.410;2023-04-16T01:48:57;13.17;;;7.43;;
69185;SDS011;56298;49.246;9.410;2023-04-16T01:51:22;12.65;;;7.05;;
69185;SDS011;56298;49.246;9.410;2023-04-16T01:53:48;12.23;;;6.70;;
69185;SDS011;56298;49.246;9.410;2023-04-16T01:56:14;11.30;;;6.57;;
69185;SDS011;56298;49.246;9.410;2023-04-16T01:58:39;11.27;;;6.60;;
69185;SDS011;56298;49.246;9.410;2023-04-16T02:01:06;11.15;;;6.55;;
69185;SDS011;56298;49.246;9.410;2023-04-16T02:03:32;12.00;;;6.07;;
69185;SDS011;56298;49.246;9.410;2023-04-16T02:05:57;10.47;;;6.37;;
69185;SDS011;56298;49.246;9.410;2023-04-16T02:08:22;12.20;;;6.50;;
69185;SDS011;56298;49.246;9.410;2023-04-16T02:10:48;11.17;;;6.50;;
69185;SDS011;56298;49.246;9.410;2023-04-16T02:13:14;10.45;;;6.15;;
69185;SDS011;56298;49.246;9.410;2023-04-16T02:15:47;12.00;;;6.27;;
69185;SDS011;56298;49.246;9.410;2023-04-16T02:18:13;10.60;;;6.40;;
69185;SDS011;56298;49.246;9.410;2023-04-16T02:20:39;10.67;;;6.03;;
69185;SDS011;56298;49.246;9.410;2023-04-16T02:23:05;12.07;;;6.10;;
69185;SDS011;56298;49.246;9.410;2023-04-16T02:25:30;10.73;;;5.60;;
69185;SDS011;56298;49.246;9.410;2023-04-16T02:27:56;10.00;;;5.78;;
69185;SDS011;56298;49.246;9.410;2023-04-16T02:30:22;9.60;;;5.80;;
69185;SDS011;56298;49.246;9.410;2023-04-16T02:32:47;10.07;;;6.10;;
69185;SDS011;56298;49.246;9.410;2023-04-16T02:35:13;10.77;;;6.10;;
69185;SDS011;56298;49.246;9.410;2023-04-16T02:37:38;9.77;;;5.90;;
69185;SDS011;56298;49.246;9.410;2023-04-16T02:40:04;9.67;;;5.60;;
69185;SDS011;56298;49.246;9.410;2023-04-16T02:42:30;9.65;;;5.68;;
69185;SDS011;56298;49.246;9.410;2023-04-16T02:44:55;9.77;;;5.53;;
69185;SDS011;56298;49.246;9.410;2023-04-16T02:47:21;10.87;;;5.60;;
69185;SDS011;56298;49.246;9.410;2023-04-16T02:49:46;9.40;;;5.70;;
69185;SDS011;56298;49.246;9.410;2023-04-16T02:52:11;10.73;;;5.70;;
69185;SDS011;56298;49.246;9.410;2023-04-16T02:54:36;10.80;;;6.00;;
69185;SDS011;56298;49.246;9.410;2023-04-16T02:57:01;10.10;;;5.90;;
69185;SDS011;56298;49.246;9.410;2023-04-16T02:59:27;10.80;;;6.07;;
69185;SDS011;56298;49.246;9.410;2023-04-16T03:01:52;9.18;;;5.63;;
69185;SDS011;56298;49.246;9.410;2023-04-16T03:04:17;11.77;;;5.50;;
69185;SDS011;56298;49.246;9.410;2023-04-16T03:06:43;9.97;;;5.70;;
69185;SDS011;56298;49.246;9.410;2023-04-16T03:09:08;10.10;;;5.70;;
69185;SDS011;56298;49.246;9.410;2023-04-16T03:11:33;10.80;;;5.70;;
69185;SDS011;56298;49.246;9.410;2023-04-16T03:13:59;9.10;;;5.40;;
69185;SDS011;56298;49.246;9.410;2023-04-16T03:16:24;9.97;;;5.40;;
69185;SDS011;56298;49.246;9.410;2023-04-16T03:18:50;9.90;;;5.33;;
69185;SDS011;56298;49.246;9.410;2023-04-16T03:21:15;10.07;;;5.70;;
69185;SDS011;56298;49.246;9.410;2023-04-16T03:23:40;10.97;;;5.73;;
69185;SDS011;56298;49.246;9.410;2023-04-16T03:26:05;10.27;;;6.20;;
69185;SDS011;56298;49.246;9.410;2023-04-16T03:28:31;10.80;;;5.90;;
69185;SDS011;56298;49.246;9.410;2023-04-16T03:30:56;11.57;;;6.23;;
69185;SDS011;56298;49.246;9.410;2023-04-16T03:33:21;9.77;;;5.97;;
69185;SDS011;56298;49.246;9.410;2023-04-16T03:35:53;10.20;;;5.60;;
69185;SDS011;56298;49.246;9.410;2023-04-16T03:38:19;10.60;;;5.70;;
69185;SDS011;56298;49.246;9.410;2023-04-16T03:40:44;9.67;;;5.47;;
69185;SDS011;56298;49.246;9.410;2023-04-16T03:43:10;10.40;;;5.33;;
69185;SDS011;56298;49.246;9.410;2023-04-16T03:45:35;11.50;;;6.40;;
69185;SDS011;56298;49.246;9.410;2023-04-16T03:48:00;11.13;;;6.07;;
69185;SDS011;56298;49.246;9.410;2023-04-16T03:50:25;10.80;;;5.90;;
69185;SDS011;56298;49.246;9.410;2023-04-16T03:52:51;12.57;;;6.63;;
69185;SDS011;56298;49.246;9.410;2023-04-16T03:55:16;12.53;;;6.30;;
69185;SDS011;56298;49.246;9.410;2023-04-16T03:57:41;13.20;;;7.07;;
69185;SDS011;56298;49.246;9.410;2023-04-16T04:00:07;11.67;;;6.20;;
69185;SDS011;56298;49.246;9.410;2023-04-16T04:02:32;11.23;;;6.30;;
69185;SDS011;56298;49.246;9.410;2023-04-16T04:04:58;13.33;;;7.37;;
69185;SDS011;56298;49.246;9.410;2023-04-16T04:07:23;15.20;;;8.13;;
69185;SDS011;56298;49.246;9.410;2023-04-16T04:09:48;15.93;;;8.60;;
69185;SDS011;56298;49.246;9.410;2023-04-16T04:12:13;17.53;;;9.33;;
69185;SDS011;56298;49.246;9.410;2023-04-16T04:14:39;17.17;;;9.53;;
69185;SDS011;56298;49.246;9.410;2023-04-16T04:17:04;16.37;;;9.23;;
69185;SDS011;56298;49.246;9.410;2023-04-16T04:19:30;17.87;;;9.77;;
69185;SDS011;56298;49.246;9.410;2023-04-16T04:21:55;16.67;;;9.10;;
69185;SDS011;56298;49.246;9.410;2023-04-16T04:24:20;18.77;;;9.80;;
69185;SDS011;56298;49.246;9.410;2023-04-16T04:26:46;18.20;;;10.00;;
69185;SDS011;56298;49.246;9.410;2023-04-16T04:29:11;18.77;;;10.67;;
69185;SDS011;56298;49.246;9.410;2023-04-16T04:31:37;19.83;;;11.13;;
69185;SDS011;56298;49.246;9.410;2023-04-16T04:34:02;22.00;;;11.40;;
69185;SDS011;56298;49.246;9.410;2023-04-16T04:36:28;20.23;;;11.10;;
69185;SDS011;56298;49.246;9.410;2023-04-16T04:38:53;20.37;;;11.30;;
69185;SDS011;56298;49.246;9.410;2023-04-16T04:41:18;21.53;;;11.47;;
69185;SDS011;56298;49.246;9.410;2023-04-16T04:43:43;22.15;;;12.02;;
69185;SDS011;56298;49.246;9.410;2023-04-16T04:46:09;22.00;;;12.23;;
69185;SDS011;56298;49.246;9.410;2023-04-16T04:48:34;21.47;;;12.17;;
69185;SDS011;56298;49.246;9.410;2023-04-16T04:50:59;24.83;;;12.63;;
69185;SDS011;56298;49.246;9.410;2023-04-16T04:53:25;22.77;;;12.63;;
69185;SDS011;56298;49.246;9.410;2023-04-16T04:55:50;23.77;;;12.93;;
69185;SDS011;56298;49.246;9.410;2023-04-16T04:58:15;24.70;;;13.57;;
69185;SDS011;56298;49.246;9.410;2023-04-16T05:00:41;27.17;;;14.23;;
69185;SDS011;56298;49.246;9.410;2023-04-16T05:03:08;25.15;;;13.70;;
69185;SDS011;56298;49.246;9.410;2023-04-16T05:05:35;26.93;;;13.90;;
69185;SDS011;56298;49.246;9.410;2023-04-16T05:08:00;28.40;;;14.93;;
69185;SDS011;56298;49.246;9.410;2023-04-16T05:10:26;25.20;;;14.53;;
69185;SDS011;56298;49.246;9.410;2023-04-16T05:12:51;27.90;;;14.63;;
69185;SDS011;56298;49.246;9.410;2023-04-16T05:15:16;26.97;;;14.80;;
69185;SDS011;56298;49.246;9.410;2023-04-16T05:17:42;27.83;;;15.40;;
69185;SDS011;56298;49.246;9.410;2023-04-16T05:20:10;26.70;;;15.37;;
69185;SDS011;56298;49.246;9.410;2023-04-16T05:22:35;29.00;;;15.82;;
69185;SDS011;56298;49.246;9.410;2023-04-16T05:25:01;29.53;;;16.40;;
69185;SDS011;56298;49.246;9.410;2023-04-16T05:27:26;30.07;;;15.13;;
69185;SDS011;56298;49.246;9.410;2023-04-16T05:29:51;28.27;;;15.20;;
69185;SDS011;56298;49.246;9.410;2023-04-16T05:32:16;29.83;;;15.77;;
69185;SDS011;56298;49.246;9.410;2023-04-16T05:34:42;26.87;;;14.90;;
69185;SDS011;56298;49.246;9.410;2023-04-16T05:37:07;28.17;;;15.60;;
69185;SDS011;56298;49.246;9.410;2023-04-16T05:39:32;27.87;;;15.53;;
69185;SDS011;56298;49.246;9.410;2023-04-16T05:41:57;29.23;;;17.07;;
69185;SDS011;56298;49.246;9.410;2023-04-16T05:44:22;28.00;;;16.10;;
69185;SDS011;56298;49.246;9.410;2023-04-16T05:46:48;29.42;;;17.35;;
69185;SDS011;56298;49.246;9.410;2023-04-16T05:49:13;31.67;;;18.17;;
69185;SDS011;56298;49.246;9.410;2023-04-16T05:51:39;30.73;;;17.42;;
69185;SDS011;56298;49.246;9.410;2023-04-16T05:54:04;30.00;;;17.10;;
69185;SDS011;56298;49.246;9.410;2023-04-16T05:56:30;30.70;;;19.33;;
69185;SDS011;56298;49.246;9.410;2023-04-16T05:58:55;31.37;;;18.40;;
69185;SDS011;56298;49.246;9.410;2023-04-16T06:01:21;28.90;;;16.83;;
69185;SDS011;56298;49.246;9.410;2023-04-16T06:03:46;29.10;;;17.15;;
69185;SDS011;56298;49.246;9.410;2023-04-16T06:06:11;30.70;;;17.40;;
69185;SDS011;56298;49.246;9.410;2023-04-16T06:08:37;27.53;;;15.87;;
69185;SDS011;56298;49.246;9.410;2023-04-16T06:11:02;27.30;;;16.67;;
69185;SDS011;56298;49.246;9.410;2023-04-16T06:13:27;28.03;;;15.70;;
69185;SDS011;56298;49.246;9.410;2023-04-16T06:15:53;26.03;;;15.07;;
69185;SDS011;56298;49.246;9.410;2023-04-16T06:18:18;24.03;;;14.13;;
69185;SDS011;56298;49.246;9.410;2023-04-16T06:20:43;26.00;;;15.03;;
69185;SDS011;56298;49.246;9.410;2023-04-16T06:23:08;25.30;;;14.53;;
69185;SDS011;56298;49.246;9.410;2023-04-16T06:25:34;26.83;;;15.37;;
69185;SDS011;56298;49.246;9.410;2023-04-16T06:27:59;22.53;;;13.63;;
69185;SDS011;56298;49.246;9.410;2023-04-16T06:30:24;25.37;;;14.93;;
69185;SDS011;56298;49.246;9.410;2023-04-16T06:32:50;23.73;;;13.63;;
69185;SDS011;56298;49.246;9.410;2023-04-16T06:35:15;23.47;;;14.07;;
69185;SDS011;56298;49.246;9.410;2023-04-16T06:37:43;23.80;;;14.15;;
69185;SDS011;56298;49.246;9.410;2023-04-16T06:40:09;25.23;;;14.20;;
69185;SDS011;56298;49.246;9.410;2023-04-16T06:42:35;25.07;;;14.50;;
69185;SDS011;56298;49.246;9.410;2023-04-16T06:45:00;25.75;;;14.85;;
69185;SDS011;56298;49.246;9.410;2023-04-16T06:47:25;23.63;;;13.88;;
69185;SDS011;56298;49.246;9.410;2023-04-16T06:49:51;22.63;;;13.68;;
69185;SDS011;56298;49.246;9.410;2023-04-16T06:52:16;22.67;;;13.70;;
69185;SDS011;56298;49.246;9.410;2023-04-16T06:54:41;24.97;;;13.87;;
69185;SDS011;56298;49.246;9.410;2023-04-16T06:57:07;23.00;;;13.50;;
69185;SDS011;56298;49.246;9.410;2023-04-16T06:59:32;24.07;;;13.60;;
69185;SDS011;56298;49.246;9.410;2023-04-16T07:01:57;23.63;;;14.07;;
69185;SDS011;56298;49.246;9.410;2023-04-16T07:04:22;22.37;;;13.23;;
69185;SDS011;56298;49.246;9.410;2023-04-16T07:06:47;25.50;;;13.97;;
69185;SDS011;56298;49.246;9.410;2023-04-16T07:09:13;23.08;;;14.13;;
69185;SDS011;56298;49.246;9.410;2023-04-16T07:11:38;22.20;;;13.80;;
69185;SDS011;56298;49.246;9.410;2023-04-16T07:14:04;24.25;;;14.30;;
69185;SDS011;56298;49.246;9.410;2023-04-16T07:16:29;23.27;;;14.13;;
69185;SDS011;56298;49.246;9.410;2023-04-16T07:18:54;24.63;;;14.80;;
69185;SDS011;56298;49.246;9.410;2023-04-16T07:21:20;24.03;;;14.20;;
69185;SDS011;56298;49.246;9.410;2023-04-16T07:23:46;24.83;;;14.15;;
69185;SDS011;56298;49.246;9.410;2023-04-16T07:26:11;23.13;;;13.80;;
69185;SDS011;56298;49.246;9.410;2023-04-16T07:28:36;24.00;;;14.63;;
69185;SDS011;56298;49.246;9.410;2023-04-16T07:31:02;24.90;;;15.13;;
69185;SDS011;56298;49.246;9.410;2023-04-16T07:33:27;23.30;;;13.77;;
69185;SDS011;56298;49.246;9.410;2023-04-16T07:35:52;22.33;;;13.93;;
69185;SDS011;56298;49.246;9.410;2023-04-16T07:38:17;21.43;;;13.50;;
69185;SDS011;56298;49.246;9.410;2023-04-16T07:40:43;24.60;;;15.52;;
69185;SDS011;56298;49.246;9.410;2023-04-16T07:43:08;24.23;;;15.30;;
69185;SDS011;56298;49.246;9.410;2023-04-16T07:45:34;23.92;;;14.07;;
69185;SDS011;56298;49.246;9.410;2023-04-16T07:47:59;23.10;;;13.90;;
69185;SDS011;56298;49.246;9.410;2023-04-16T07:50:25;21.67;;;13.60;;
69185;SDS011;56298;49.246;9.410;2023-04-16T07:52:50;23.50;;;13.97;;
69185;SDS011;56298;49.246;9.410;2023-04-16T07:55:15;22.73;;;13.60;;
69185;SDS011;56298;49.246;9.410;2023-04-16T07:57:41;23.80;;;14.00;;
69185;SDS011;56298;49.246;9.410;2023-04-16T08:00:06;23.93;;;14.00;;
69185;SDS011;56298;49.246;9.410;2023-04-16T08:02:32;23.08;;;13.55;;
69185;SDS011;56298;49.246;9.410;2023-04-16T08:04:58;23.57;;;13.60;;
69185;SDS011;56298;49.246;9.410;2023-04-16T08:07:23;22.07;;;13.10;;
69185;SDS011;56298;49.246;9.410;2023-04-16T08:09:50;23.10;;;13.73;;
69185;SDS011;56298;49.246;9.410;2023-04-16T08:12:16;24.83;;;13.83;;
69185;SDS011;56298;49.246;9.410;2023-04-16T08:14:42;29.40;;;18.40;;
69185;SDS011;56298;49.246;9.410;2023-04-16T08:17:07;37.17;;;22.63;;
69185;SDS011;56298;49.246;9.410;2023-04-16T08:19:33;25.07;;;15.90;;
69185;SDS011;56298;49.246;9.410;2023-04-16T08:21:58;23.87;;;14.60;;
69185;SDS011;56298;49.246;9.410;2023-04-16T08:24:23;22.73;;;14.53;;
69185;SDS011;56298;49.246;9.410;2023-04-16T08:26:49;28.43;;;16.23;;
69185;SDS011;56298;49.246;9.410;2023-04-16T08:29:14;23.60;;;13.93;;
69185;SDS011;56298;49.246;9.410;2023-04-16T08:31:39;23.53;;;13.87;;
69185;SDS011;56298;49.246;9.410;2023-04-16T08:34:05;24.02;;;14.57;;
69185;SDS011;56298;49.246;9.410;2023-04-16T08:36:30;23.70;;;14.00;;
69185;SDS011;56298;49.246;9.410;2023-04-16T08:38:55;20.70;;;13.07;;
69185;SDS011;56298;49.246;9.410;2023-04-16T08:41:21;21.27;;;12.73;;
69185;SDS011;56298;49.246;9.410;2023-04-16T08:43:47;23.15;;;12.55;;
69185;SDS011;56298;49.246;9.410;2023-04-16T08:46:15;23.90;;;13.00;;
69185;SDS011;56298;49.246;9.410;2023-04-16T08:48:41;23.75;;;13.77;;
69185;SDS011;56298;49.246;9.410;2023-04-16T08:51:10;26.13;;;14.88;;
69185;SDS011;56298;49.246;9.410;2023-04-16T08:53:52;21.73;;;13.07;;
69185;SDS011;56298;49.246;9.410;2023-04-16T08:56:22;22.08;;;13.68;;
69185;SDS011;56298;49.246;9.410;2023-04-16T08:58:49;22.67;;;13.25;;
69185;SDS011;56298;49.246;9.410;2023-04-16T09:01:15;20.73;;;12.60;;
69185;SDS011;56298;49.246;9.410;2023-04-16T09:03:41;20.48;;;11.77;;
69185;SDS011;56298;49.246;9.410;2023-04-16T09:06:10;19.40;;;11.55;;
69185;SDS011;56298;49.246;9.410;2023-04-16T09:08:35;20.20;;;12.40;;
69185;SDS011;56298;49.246;9.410;2023-04-16T09:11:02;20.17;;;12.00;;
69185;SDS011;56298;49.246;9.410;2023-04-16T09:13:27;18.98;;;11.70;;
69185;SDS011;56298;49.246;9.410;2023-04-16T09:15:55;20.75;;;11.63;;
69185;SDS011;56298;49.246;9.410;2023-04-16T09:18:21;20.55;;;11.85;;
69185;SDS011;56298;49.246;9.410;2023-04-16T09:20:47;19.53;;;11.30;;
69185;SDS011;56298;49.246;9.410;2023-04-16T09:23:13;20.70;;;11.43;;
69185;SDS011;56298;49.246;9.410;2023-04-16T09:25:38;18.20;;;10.97;;
69185;SDS011;56298;49.246;9.410;2023-04-16T09:28:04;19.13;;;11.20;;
69185;SDS011;56298;49.246;9.410;2023-04-16T09:30:29;21.27;;;11.70;;
69185;SDS011;56298;49.246;9.410;2023-04-16T09:33:11;20.23;;;10.80;;
69185;SDS011;56298;49.246;9.410;2023-04-16T09:35:44;19.27;;;10.45;;
69185;SDS011;56298;49.246;9.410;2023-04-16T09:38:10;19.73;;;10.70;;
69185;SDS011;56298;49.246;9.410;2023-04-16T09:40:36;17.60;;;10.47;;
69185;SDS011;56298;49.246;9.410;2023-04-16T09:43:02;18.90;;;10.60;;
69185;SDS011;56298;49.246;9.410;2023-04-16T09:45:46;18.67;;;11.00;;
69185;SDS011;56298;49.246;9.410;2023-04-16T09:48:26;17.57;;;10.40;;
69185;SDS011;56298;49.246;9.410;2023-04-16T09:50:56;16.80;;;10.15;;
69185;SDS011;56298;49.246;9.410;2023-04-16T09:53:23;17.33;;;9.73;;
69185;SDS011;56298;49.246;9.410;2023-04-16T09:55:50;17.02;;;9.98;;
69185;SDS011;56298;49.246;9.410;2023-04-16T09:58:17;16.90;;;9.43;;
69185;SDS011;56298;49.246;9.410;2023-04-16T10:00:43;16.42;;;9.38;;
69185;SDS011;56298;49.246;9.410;2023-04-16T10:03:09;16.83;;;9.97;;
69185;SDS011;56298;49.246;9.410;2023-04-16T10:05:35;15.57;;;9.43;;
69185;SDS011;56298;49.246;9.410;2023-04-16T10:08:00;15.68;;;9.15;;
69185;SDS011;56298;49.246;9.410;2023-04-16T10:10:26;15.53;;;8.90;;
69185;SDS011;56298;49.246;9.410;2023-04-16T10:12:52;16.50;;;9.50;;
69185;SDS011;56298;49.246;9.410;2023-04-16T10:15:19;14.70;;;8.93;;
69185;SDS011;56298;49.246;9.410;2023-04-16T10:17:45;14.38;;;8.30;;
69185;SDS011;56298;49.246;9.410;2023-04-16T10:20:11;14.60;;;8.35;;
69185;SDS011;56298;49.246;9.410;2023-04-16T10:22:37;12.97;;;8.27;;
69185;SDS011;56298;49.246;9.410;2023-04-16T10:25:03;14.20;;;8.63;;
69185;SDS011;56298;49.246;9.410;2023-04-16T10:27:29;13.32;;;7.60;;
69185;SDS011;56298;49.246;9.410;2023-04-16T10:29:55;13.55;;;8.20;;
69185;SDS011;56298;49.246;9.410;2023-04-16T10:32:20;12.90;;;7.68;;
69185;SDS011;56298;49.246;9.410;2023-04-16T10:34:47;13.02;;;7.00;;
69185;SDS011;56298;49.246;9.410;2023-04-16T10:37:12;11.67;;;6.53;;
69185;SDS011;56298;49.246;9.410;2023-04-16T10:39:39;11.88;;;6.78;;
69185;SDS011;56298;49.246;9.410;2023-04-16T10:42:05;12.93;;;7.13;;
69185;SDS011;56298;49.246;9.410;2023-04-16T10:44:32;10.07;;;5.80;;
69185;SDS011;56298;49.246;9.410;2023-04-16T10:46:58;11.53;;;6.60;;
69185;SDS011;56298;49.246;9.410;2023-04-16T10:49:23;11.33;;;6.77;;
69185;SDS011;56298;49.246;9.410;2023-04-16T10:51:53;10.05;;;5.05;;
69185;SDS011;56298;49.246;9.410;2023-04-16T10:54:27;9.27;;;5.22;;
69185;SDS011;56298;49.246;9.410;2023-04-16T10:56:56;10.00;;;5.90;;
69185;SDS011;56298;49.246;9.410;2023-04-16T10:59:33;9.57;;;5.20;;
69185;SDS011;56298;49.246;9.410;2023-04-16T11:02:00;10.25;;;5.95;;
69185;SDS011;56298;49.246;9.410;2023-04-16T11:04:34;8.23;;;4.80;;
69185;SDS011;56298;49.246;9.410;2023-04-16T11:14:54;9.00;;;5.00;;
69185;SDS011;56298;49.246;9.410;2023-04-16T11:17:26;8.10;;;4.82;;
69185;SDS011;56298;49.246;9.410;2023-04-16T11:19:52;8.52;;;4.28;;
69185;SDS011;56298;49.246;9.410;2023-04-16T11:22:18;7.43;;;4.27;;
69185;SDS011;56298;49.246;9.410;2023-04-16T11:24:44;7.57;;;4.30;;
69185;SDS011;56298;49.246;9.410;2023-04-16T11:27:10;8.88;;;4.55;;
69185;SDS011;56298;49.246;9.410;2023-04-16T11:29:36;7.80;;;4.40;;
69185;SDS011;56298;49.246;9.410;2023-04-16T11:32:02;7.10;;;3.93;;
69185;SDS011;56298;49.246;9.410;2023-04-16T11:34:27;7.65;;;3.75;;
69185;SDS011;56298;49.246;9.410;2023-04-16T11:36:53;7.38;;;4.15;;
69185;SDS011;56298;49.246;9.410;2023-04-16T11:39:18;7.57;;;4.37;;
69185;SDS011;56298;49.246;9.410;2023-04-16T11:41:47;7.43;;;4.23;;
69185;SDS011;56298;49.246;9.410;2023-04-16T11:46:45;7.25;;;4.18;;
69185;SDS011;56298;49.246;9.410;2023-04-16T11:49:10;7.53;;;4.17;;
69185;SDS011;56298;49.246;9.410;2023-04-16T11:51:39;7.87;;;4.37;;
69185;SDS011;56298;49.246;9.410;2023-04-16T11:54:05;9.40;;;4.67;;
69185;SDS011;56298;49.246;9.410;2023-04-16T11:56:33;8.15;;;4.22;;
69185;SDS011;56298;49.246;9.410;2023-04-16T11:59:06;7.80;;;4.53;;
69185;SDS011;56298;49.246;9.410;2023-04-16T12:01:36;9.02;;;5.22;;
69185;SDS011;56298;49.246;9.410;2023-04-16T12:04:03;9.17;;;5.20;;
69185;SDS011;56298;49.246;9.410;2023-04-16T12:06:28;9.45;;;5.47;;
69185;SDS011;56298;49.246;9.410;2023-04-16T12:08:55;8.43;;;5.10;;
69185;SDS011;56298;49.246;9.410;2023-04-16T12:11:21;9.43;;;5.20;;
69185;SDS011;56298;49.246;9.410;2023-04-16T12:16:34;9.18;;;5.47;;
69185;SDS011;56298;49.246;9.410;2023-04-16T12:19:00;8.43;;;5.30;;
69185;SDS011;56298;49.246;9.410;2023-04-16T12:21:47;9.80;;;5.33;;
69185;SDS011;56298;49.246;9.410;2023-04-16T12:24:14;8.93;;;5.50;;
69185;SDS011;56298;49.246;9.410;2023-04-16T12:26:41;12.98;;;7.93;;
69185;SDS011;56298;49.246;9.410;2023-04-16T12:29:13;13.45;;;8.43;;
69185;SDS011;56298;49.246;9.410;2023-04-16T12:31:40;13.45;;;9.95;;
69185;SDS011;56298;49.246;9.410;2023-04-16T12:34:05;35.30;;;24.20;;
69185;SDS011;56298;49.246;9.410;2023-04-16T12:36:30;11.93;;;8.20;;
69185;SDS011;56298;49.246;9.410;2023-04-16T12:38:56;11.73;;;6.77;;
69185;SDS011;56298;49.246;9.410;2023-04-16T12:41:21;10.87;;;6.63;;
69185;SDS011;56298;49.246;9.410;2023-04-16T12:43:46;10.23;;;6.50;;
69185;SDS011;56298;49.246;9.410;2023-04-16T12:46:11;9.50;;;5.87;;
69185;SDS011;56298;49.246;9.410;2023-04-16T12:48:37;9.80;;;6.10;;
69185;SDS011;56298;49.246;9.410;2023-04-16T12:51:02;10.97;;;7.03;;
69185;SDS011;56298;49.246;9.410;2023-04-16T12:53:27;10.67;;;6.83;;
69185;SDS011;56298;49.246;9.410;2023-04-16T12:55:53;11.43;;;7.63;;
69185;SDS011;56298;49.246;9.410;2023-04-16T12:58:18;12.00;;;8.48;;
69185;SDS011;56298;49.246;9.410;2023-04-16T13:00:44;14.30;;;9.50;;
69185;SDS011;56298;49.246;9.410;2023-04-16T13:03:09;14.43;;;9.90;;
69185;SDS011;56298;49.246;9.410;2023-04-16T13:05:34;11.70;;;7.57;;
69185;SDS011;56298;49.246;9.410;2023-04-16T13:08:00;12.85;;;9.35;;
69185;SDS011;56298;49.246;9.410;2023-04-16T13:10:25;13.20;;;9.80;;
69185;SDS011;56298;49.246;9.410;2023-04-16T13:12:51;11.27;;;7.77;;
69185;SDS011;56298;49.246;9.410;2023-04-16T13:15:17;11.50;;;7.17;;
69185;SDS011;56298;49.246;9.410;2023-04-16T13:17:42;10.97;;;7.00;;
69185;SDS011;56298;49.246;9.410;2023-04-16T13:20:07;11.70;;;7.53;;
69185;SDS011;56298;49.246;9.410;2023-04-16T13:22:33;17.70;;;9.68;;
69185;SDS011;56298;49.246;9.410;2023-04-16T13:24:59;13.48;;;8.43;;
69185;SDS011;56298;49.246;9.410;2023-04-16T13:27:24;12.30;;;7.30;;
69185;SDS011;56298;49.246;9.410;2023-04-16T13:29:50;11.67;;;6.87;;
69185;SDS011;56298;49.246;9.410;2023-04-16T13:32:15;12.47;;;7.30;;
69185;SDS011;56298;49.246;9.410;2023-04-16T13:34:41;12.33;;;7.67;;
69185;SDS011;56298;49.246;9.410;2023-04-16T13:37:06;13.25;;;7.60;;
69185;SDS011;56298;49.246;9.410;2023-04-16T13:39:32;15.07;;;7.88;;
69185;SDS011;56298;49.246;9.410;2023-04-16T13:41:57;13.52;;;8.25;;
69185;SDS011;56298;49.246;9.410;2023-04-16T13:44:23;12.83;;;7.80;;
69185;SDS011;56298;49.246;9.410;2023-04-16T13:46:48;13.70;;;8.27;;
69185;SDS011;56298;49.246;9.410;2023-04-16T13:49:13;14.70;;;8.95;;
69185;SDS011;56298;49.246;9.410;2023-04-16T13:51:38;13.93;;;9.10;;
69185;SDS011;56298;49.246;9.410;2023-04-16T13:54:05;15.83;;;10.10;;
69185;SDS011;56298;49.246;9.410;2023-04-16T13:56:30;16.37;;;10.87;;
69185;SDS011;56298;49.246;9.410;2023-04-16T13:58:55;16.47;;;10.20;;
69185;SDS011;56298;49.246;9.410;2023-04-16T14:01:21;19.70;;;11.13;;
69185;SDS011;56298;49.246;9.410;2023-04-16T14:03:46;16.67;;;10.03;;
69185;SDS011;56298;49.246;9.410;2023-04-16T14:06:12;18.27;;;12.13;;
69185;SDS011;56298;49.246;9.410;2023-04-16T14:08:38;23.27;;;16.25;;
69185;SDS011;56298;49.246;9.410;2023-04-16T14:11:04;18.47;;;11.70;;
69185;SDS011;56298;49.246;9.410;2023-04-16T14:13:30;22.83;;;15.83;;
69185;SDS011;56298;49.246;9.410;2023-04-16T14:15:55;22.57;;;16.57;;
69185;SDS011;56298;49.246;9.410;2023-04-16T14:18:21;20.93;;;15.43;;
69185;SDS011;56298;49.246;9.410;2023-04-16T14:20:46;18.83;;;12.40;;
69185;SDS011;56298;49.246;9.410;2023-04-16T14:23:12;16.23;;;11.30;;
69185;SDS011;56298;49.246;9.410;2023-04-16T14:25:37;27.07;;;20.33;;
69185;SDS011;56298;49.246;9.410;2023-04-16T14:28:02;18.10;;;11.98;;
69185;SDS011;56298;49.246;9.410;2023-04-16T14:30:28;15.90;;;10.95;;
69185;SDS011;56298;49.246;9.410;2023-04-16T14:32:53;19.00;;;12.87;;
69185;SDS011;56298;49.246;9.410;2023-04-16T14:35:18;15.93;;;11.55;;
69185;SDS011;56298;49.246;9.410;2023-04-16T14:37:44;16.13;;;11.87;;